Главная страница
METAR-TAF:

METAR-TAF

Аэропорты :

Рейкьявик, Исландия

широта: 64-08N, долгота: 021-54W, высота над уровнем моря: 54 м

Текущие метеонаблюдения

Эта сводка был подготовлена 59 минут назад, в 07:00 UTC
Ветер 3 Узел переменных направлений
Температура -3°C
Влажность 74%
Давление 999 hPa
Видимость 10 км и более
Нет облачности ниже 1500 м, и нет кучево-дождевой облачности

METAR: BIRK 140700Z VRB03KT CAVOK M03/M07 Q0999 R19/390240

Время: 07:59 (07:59 UTC)

Прогноз

Эта сводка был подготовлена 3 часа и 24 минут назад, в 04:35 UTC
Прогноз действительный с 14-го 06 UTC до 15-го 06 UTC
Ветер 5 Узел от восточный
Видимость 10 км и более
Нет облачности ниже 1500 м, и нет кучево-дождевой облачности

TAF: BIRK 140435Z 1406/1506 09005KT CAVOK TXM02/1406Z TNM06/1506Z

Метеонаблюдения и прогнозы для более 4000 аэропортов (сводки METAR и TAF).

Имеющиеся станции представлены на карте желтыми и красными точками.

Чтобы увидеть название станции, наведите на нее мышь.

Затем щелкните, чтобы увидеть метеонаблюдения и метеопрогнозы.

Управление картой: чтобы увеличить масштаб, щелкните зеленые кнопки с черным крестиком; чтобы уменьшить масштаб, щелкните зеленую кнопку с тире; для просмотра соседних карт щелкайте зеленые стрелки.


METAR-TAF: